Strategic Alliance — 9V7193 — position and weather

sailwx.info

Track history (hours):
 
Tides and Currents Weather Stations Pressure Air Temp Water Temp Dewpoint Dewpoint Depression Visibility Wind Speed Wind Dir Waves Ship Positions

Strategic Alliance

Last reported at 2018-Mar-26 07:01 UTC. Time now 2018-Apr-25 06:55 UTC.
Position N 22°41' W 094°02'.
Warning: this ship's position is 29 days out of date.

Length 180 m; draft 9.5 m.

Type: Cargo ship. MMSI: 563642000.

Date/timePositionNaut miles runAvg speedWind from/ knotsBaromVisibWave heightAir tempDewpointWater temp
2018-Mar-26 07:01N 22°41' W 094°02'112.1
2018-Mar-26 06:57N 22°41' W 094°01'2712.1
2018-Mar-26 04:42N 22°42' W 093°31'312.2
2018-Mar-26 04:27N 22°42' W 093°28'912.1
2018-Mar-26 03:44N 22°43' W 093°18'312.3
2018-Mar-26 03:30N 22°43' W 093°15'612.1
2018-Mar-26 03:00N 22°44' W 093°09'  
2018-Mar-23 09:43N 25°30' W 079°32'412.2
2018-Mar-23 09:26N 25°34' W 079°31'512.2
2018-Mar-23 08:59N 25°39' W 079°30'612.2
2018-Mar-23 08:30N 25°45' W 079°30'612.2
2018-Mar-23 08:00N 25°51' W 079°29'912.4
2018-Mar-23 07:17N 25°60' W 079°27'412.7
2018-Mar-23 06:59N 26°04' W 079°26'612.8
2018-Mar-23 06:29N 26°10' W 079°25'  
2018-Mar-19 03:38N 38°51' W 075°05'0 0.5
2018-Mar-19 02:53N 38°52' W 075°05'410.3
2018-Mar-19 02:30N 38°56' W 075°06'510.4
2018-Mar-19 02:00N 39°00' W 075°09'510.1
2018-Mar-19 01:30N 39°05' W 075°11'5 9.9
2018-Mar-19 01:00N 39°09' W 075°15'5 9.3
2018-Mar-19 00:30N 39°13' W 075°18'510.1
2018-Mar-19 00:00N 39°17' W 075°22'815.6
2018-Mar-18 23:29N 39°23' W 075°29'4 7.7
2018-Mar-18 23:00N 39°26' W 075°32'713.2
2018-Mar-18 22:30N 39°33' W 075°33'5 9.6
2018-Mar-18 21:58N 39°38' W 075°35'511.3
2018-Mar-18 21:30N 39°42' W 075°31'1 2.6
2018-Mar-18 21:00N 39°43' W 075°31'0 0.0
2018-Mar-18 20:29N 39°43' W 075°31'0 0.0
2018-Mar-18 19:59N 39°43' W 075°31'0 0.0
2018-Mar-18 19:29N 39°43' W 075°31'0 0.0
2018-Mar-18 18:59N 39°43' W 075°31'0 0.0
2018-Mar-18 18:30N 39°43' W 075°31'0 0.0
2018-Mar-18 17:59N 39°43' W 075°31'0 0.0
2018-Mar-18 17:29N 39°43' W 075°31'0 0.0
2018-Mar-18 16:59N 39°43' W 075°31'0 0.0
2018-Mar-18 16:29N 39°43' W 075°31'0 0.0
2018-Mar-18 15:59N 39°43' W 075°31'0 0.0
2018-Mar-18 15:29N 39°43' W 075°31'0 0.0
2018-Mar-18 14:59N 39°43' W 075°31'0 0.0
2018-Mar-18 14:29N 39°43' W 075°31'0 0.0
2018-Mar-18 13:59N 39°43' W 075°31'0 0.0
2018-Mar-18 13:29N 39°43' W 075°31'0 0.0
2018-Mar-18 12:56N 39°43' W 075°31'0 0.0
2018-Mar-18 12:22N 39°43' W 075°31'0 0.0
2018-Mar-18 11:56N 39°43' W 075°31'0 0.0
2018-Mar-18 11:26N 39°43' W 075°31'0 0.0
2018-Mar-18 10:56N 39°43' W 075°31'0 0.0
2018-Mar-18 10:28N 39°43' W 075°31'0 0.0
2018-Mar-18 09:59N 39°43' W 075°31'0 0.0
2018-Mar-18 09:30N 39°43' W 075°31'0 0.0
2018-Mar-18 08:59N 39°43' W 075°31'0 0.0
2018-Mar-18 08:29N 39°43' W 075°31'0 0.0
2018-Mar-18 07:59N 39°43' W 075°31'0 0.0
2018-Mar-18 07:29N 39°43' W 075°31'0 0.0
2018-Mar-18 06:59N 39°43' W 075°31'0 0.0
2018-Mar-18 06:29N 39°43' W 075°31'0 0.0
2018-Mar-18 05:59N 39°43' W 075°31'0 0.0
2018-Mar-18 05:29N 39°43' W 075°31'0 0.0
2018-Mar-18 04:59N 39°43' W 075°31'0 0.0
2018-Mar-18 04:29N 39°43' W 075°31'0 0.0
2018-Mar-18 03:59N 39°43' W 075°31'0 0.0
2018-Mar-18 03:29N 39°43' W 075°31'0 0.0
2018-Mar-18 02:59N 39°43' W 075°31'0 0.0
2018-Mar-18 02:29N 39°43' W 075°31'0 0.0
2018-Mar-18 01:59N 39°43' W 075°31'0 0.0
2018-Mar-18 01:29N 39°43' W 075°31'0 0.0
2018-Mar-18 00:59N 39°43' W 075°31'0 0.0
2018-Mar-18 00:29N 39°43' W 075°31'0 0.0
2018-Mar-17 23:59N 39°43' W 075°31'0 0.0
2018-Mar-17 23:29N 39°43' W 075°31'0 0.0
2018-Mar-17 22:59N 39°43' W 075°31'0 0.0
2018-Mar-17 22:29N 39°43' W 075°31'0 0.0
2018-Mar-17 21:59N 39°43' W 075°31'0 0.0
2018-Mar-17 21:29N 39°43' W 075°31'0 0.0
2018-Mar-17 20:59N 39°43' W 075°31'0 0.0
2018-Mar-17 20:29N 39°43' W 075°31'0 0.0
2018-Mar-17 19:59N 39°43' W 075°31'0 0.0
2018-Mar-17 19:29N 39°43' W 075°31'0 0.0
2018-Mar-17 18:56N 39°43' W 075°31'0 0.0
2018-Mar-17 18:29N 39°43' W 075°31'0 0.0
2018-Mar-17 17:59N 39°43' W 075°31'0 0.0
2018-Mar-17 17:29N 39°43' W 075°31'0 0.0
2018-Mar-17 16:59N 39°43' W 075°31'0 0.0
2018-Mar-17 16:29N 39°43' W 075°31'0 0.0
2018-Mar-17 15:59N 39°43' W 075°31'0 0.0
2018-Mar-17 15:29N 39°43' W 075°31'0 0.0
2018-Mar-17 14:59N 39°43' W 075°31'0 0.0
2018-Mar-17 14:29N 39°43' W 075°31'0 0.0
2018-Mar-17 13:59N 39°43' W 075°31'0 0.0
2018-Mar-17 13:29N 39°43' W 075°31'0 0.0
2018-Mar-17 12:56N 39°43' W 075°31'0 0.0
2018-Mar-17 12:29N 39°43' W 075°31'0 0.0
2018-Mar-17 11:59N 39°43' W 075°31'0 0.0
2018-Mar-17 11:29N 39°43' W 075°31'0 0.0
2018-Mar-17 10:59N 39°43' W 075°31'0 0.0
2018-Mar-17 10:29N 39°43' W 075°31'0 0.0
2018-Mar-17 09:59N 39°43' W 075°31'0 0.0
2018-Mar-17 09:29N 39°43' W 075°31'0 0.0
2018-Mar-17 08:59N 39°43' W 075°31'0 0.0
2018-Mar-17 08:29N 39°43' W 075°31'0 0.0
2018-Mar-17 07:59N 39°43' W 075°31'0 0.0
2018-Mar-17 07:29N 39°43' W 075°31'0 0.0
2018-Mar-17 06:59N 39°43' W 075°31'0 0.0
2018-Mar-17 06:29N 39°43' W 075°31'0 0.0
2018-Mar-17 05:59N 39°43' W 075°31'0 0.0
2018-Mar-17 05:29N 39°43' W 075°31'0 0.0
2018-Mar-17 04:59N 39°43' W 075°31'0 0.0
2018-Mar-17 04:29N 39°43' W 075°31'0 0.0
2018-Mar-17 03:59N 39°43' W 075°31'0 0.0
2018-Mar-17 03:26N 39°43' W 075°31'0 0.0
2018-Mar-17 02:59N 39°43' W 075°31'0 0.0
2018-Mar-17 02:29N 39°43' W 075°31'0 0.0
2018-Mar-17 01:59N 39°43' W 075°31'0 0.0
2018-Mar-17 01:29N 39°43' W 075°31'0 0.0
2018-Mar-17 00:59N 39°43' W 075°31'0 0.0
2018-Mar-17 00:29N 39°43' W 075°31'0 0.0
2018-Mar-16 23:59N 39°43' W 075°31'0 0.0
2018-Mar-16 23:29N 39°43' W 075°31'0 0.0
2018-Mar-16 22:59N 39°43' W 075°31'0 0.0
2018-Mar-16 22:29N 39°43' W 075°31'0 0.0
2018-Mar-16 21:59N 39°43' W 075°31'0 0.1
2018-Mar-16 21:30N 39°43' W 075°31'1 1.6
2018-Mar-16 21:01N 39°43' W 075°31'2 4.5
2018-Mar-16 20:31N 39°45' W 075°30'510.5
2018-Mar-16 20:01N 39°48' W 075°24'5 9.8
2018-Mar-16 19:30N 39°51' W 075°19'4 8.4
2018-Mar-16 19:01N 39°51' W 075°14'0 0.3
2018-Mar-16 18:29N 39°51' W 075°13'0 0.0
2018-Mar-16 17:59N 39°51' W 075°13'0 0.0
2018-Mar-16 17:29N 39°51' W 075°13'0 0.1
2018-Mar-16 16:59N 39°52' W 075°13'0 0.0
2018-Mar-16 16:29N 39°52' W 075°13'0 0.1
2018-Mar-16 15:59N 39°52' W 075°13'0 0.1
2018-Mar-16 15:29N 39°52' W 075°13'0 0.0
2018-Mar-16 14:59N 39°52' W 075°13'0 0.0
2018-Mar-16 14:29N 39°52' W 075°13'0 0.0
2018-Mar-16 13:59N 39°52' W 075°13'0 0.0
2018-Mar-16 13:29N 39°52' W 075°13'0 0.1
2018-Mar-16 12:59N 39°51' W 075°13'0 0.2
2018-Mar-16 12:29N 39°51' W 075°14'0 0.2
2018-Mar-16 11:59N 39°51' W 075°14'0 0.0
2018-Mar-16 11:29N 39°51' W 075°14'0 0.1
2018-Mar-16 11:00N 39°51' W 075°14'2 4.7
2018-Mar-16 10:30N 39°51' W 075°17'4 7.1
2018-Mar-16 10:00N 39°50' W 075°21'0 0.6
2018-Mar-16 09:30N 39°50' W 075°22'0 0.0
2018-Mar-16 09:00N 39°50' W 075°22'0 0.0
2018-Mar-16 08:27N 39°50' W 075°22'0 0.1
2018-Mar-16 08:00N 39°50' W 075°22'3 5.9
2018-Mar-16 07:30N 39°51' W 075°18'  
Track history (hours):
 
Tides and Currents Weather Stations Pressure Air Temp Water Temp Dewpoint Dewpoint Depression Visibility Wind Speed Wind Dir Waves Ship Positions

Strategic Alliance

Last reported at 2018-Mar-26 07:01 UTC. Time now 2018-Apr-25 06:55 UTC.
Position N 22°41' W 094°02'.
Warning: this ship's position is 29 days out of date.

Length 180 m; draft 9.5 m.

Type: Cargo ship. MMSI: 563642000.

Date/timePositionNaut miles runAvg speedWind from/ knotsBaromVisibWave heightAir tempDewpointWater temp
2018-Mar-26 07:01N 22°41' W 094°02'112.1
2018-Mar-26 06:57N 22°41' W 094°01'2712.1
2018-Mar-26 04:42N 22°42' W 093°31'312.2
2018-Mar-26 04:27N 22°42' W 093°28'912.1
2018-Mar-26 03:44N 22°43' W 093°18'312.3
2018-Mar-26 03:30N 22°43' W 093°15'612.1
2018-Mar-26 03:00N 22°44' W 093°09'  
2018-Mar-23 09:43N 25°30' W 079°32'412.2
2018-Mar-23 09:26N 25°34' W 079°31'512.2
2018-Mar-23 08:59N 25°39' W 079°30'612.2
2018-Mar-23 08:30N 25°45' W 079°30'612.2
2018-Mar-23 08:00N 25°51' W 079°29'912.4
2018-Mar-23 07:17N 25°60' W 079°27'412.7
2018-Mar-23 06:59N 26°04' W 079°26'612.8
2018-Mar-23 06:29N 26°10' W 079°25'  
2018-Mar-19 03:38N 38°51' W 075°05'0 0.5
2018-Mar-19 02:53N 38°52' W 075°05'410.3
2018-Mar-19 02:30N 38°56' W 075°06'510.4
2018-Mar-19 02:00N 39°00' W 075°09'510.1
2018-Mar-19 01:30N 39°05' W 075°11'5 9.9
2018-Mar-19 01:00N 39°09' W 075°15'5 9.3
2018-Mar-19 00:30N 39°13' W 075°18'510.1
2018-Mar-19 00:00N 39°17' W 075°22'815.6
2018-Mar-18 23:29N 39°23' W 075°29'4 7.7
2018-Mar-18 23:00N 39°26' W 075°32'713.2
2018-Mar-18 22:30N 39°33' W 075°33'5 9.6
2018-Mar-18 21:58N 39°38' W 075°35'511.3
2018-Mar-18 21:30N 39°42' W 075°31'1 2.6
2018-Mar-18 21:00N 39°43' W 075°31'0 0.0
2018-Mar-18 20:29N 39°43' W 075°31'0 0.0
2018-Mar-18 19:59N 39°43' W 075°31'0 0.0
2018-Mar-18 19:29N 39°43' W 075°31'0 0.0
2018-Mar-18 18:59N 39°43' W 075°31'0 0.0
2018-Mar-18 18:30N 39°43' W 075°31'0 0.0
2018-Mar-18 17:59N 39°43' W 075°31'0 0.0
2018-Mar-18 17:29N 39°43' W 075°31'0 0.0
2018-Mar-18 16:59N 39°43' W 075°31'0 0.0
2018-Mar-18 16:29N 39°43' W 075°31'0 0.0
2018-Mar-18 15:59N 39°43' W 075°31'0 0.0
2018-Mar-18 15:29N 39°43' W 075°31'0 0.0
2018-Mar-18 14:59N 39°43' W 075°31'0 0.0
2018-Mar-18 14:29N 39°43' W 075°31'0 0.0
2018-Mar-18 13:59N 39°43' W 075°31'0 0.0
2018-Mar-18 13:29N 39°43' W 075°31'0 0.0
2018-Mar-18 12:56N 39°43' W 075°31'0 0.0
2018-Mar-18 12:22N 39°43' W 075°31'0 0.0
2018-Mar-18 11:56N 39°43' W 075°31'0 0.0
2018-Mar-18 11:26N 39°43' W 075°31'0 0.0
2018-Mar-18 10:56N 39°43' W 075°31'0 0.0
2018-Mar-18 10:28N 39°43' W 075°31'0 0.0
2018-Mar-18 09:59N 39°43' W 075°31'0 0.0
2018-Mar-18 09:30N 39°43' W 075°31'0 0.0
2018-Mar-18 08:59N 39°43' W 075°31'0 0.0
2018-Mar-18 08:29N 39°43' W 075°31'0 0.0
2018-Mar-18 07:59N 39°43' W 075°31'0 0.0
2018-Mar-18 07:29N 39°43' W 075°31'0 0.0
2018-Mar-18 06:59N 39°43' W 075°31'0 0.0
2018-Mar-18 06:29N 39°43' W 075°31'0 0.0
2018-Mar-18 05:59N 39°43' W 075°31'0 0.0
2018-Mar-18 05:29N 39°43' W 075°31'0 0.0
2018-Mar-18 04:59N 39°43' W 075°31'0 0.0
2018-Mar-18 04:29N 39°43' W 075°31'0 0.0
2018-Mar-18 03:59N 39°43' W 075°31'0 0.0
2018-Mar-18 03:29N 39°43' W 075°31'0 0.0
2018-Mar-18 02:59N 39°43' W 075°31'0 0.0
2018-Mar-18 02:29N 39°43' W 075°31'0 0.0
2018-Mar-18 01:59N 39°43' W 075°31'0 0.0
2018-Mar-18 01:29N 39°43' W 075°31'0 0.0
2018-Mar-18 00:59N 39°43' W 075°31'0 0.0
2018-Mar-18 00:29N 39°43' W 075°31'0 0.0
2018-Mar-17 23:59N 39°43' W 075°31'0 0.0
2018-Mar-17 23:29N 39°43' W 075°31'0 0.0
2018-Mar-17 22:59N 39°43' W 075°31'0 0.0
2018-Mar-17 22:29N 39°43' W 075°31'0 0.0
2018-Mar-17 21:59N 39°43' W 075°31'0 0.0
2018-Mar-17 21:29N 39°43' W 075°31'0 0.0
2018-Mar-17 20:59N 39°43' W 075°31'0 0.0
2018-Mar-17 20:29N 39°43' W 075°31'0 0.0
2018-Mar-17 19:59N 39°43' W 075°31'0 0.0
2018-Mar-17 19:29N 39°43' W 075°31'0 0.0
2018-Mar-17 18:56N 39°43' W 075°31'0 0.0
2018-Mar-17 18:29N 39°43' W 075°31'0 0.0
2018-Mar-17 17:59N 39°43' W 075°31'0 0.0
2018-Mar-17 17:29N 39°43' W 075°31'0 0.0
2018-Mar-17 16:59N 39°43' W 075°31'0 0.0
2018-Mar-17 16:29N 39°43' W 075°31'0 0.0
2018-Mar-17 15:59N 39°43' W 075°31'0 0.0
2018-Mar-17 15:29N 39°43' W 075°31'0 0.0
2018-Mar-17 14:59N 39°43' W 075°31'0 0.0
2018-Mar-17 14:29N 39°43' W 075°31'0 0.0
2018-Mar-17 13:59N 39°43' W 075°31'0 0.0
2018-Mar-17 13:29N 39°43' W 075°31'0 0.0
2018-Mar-17 12:56N 39°43' W 075°31'0 0.0
2018-Mar-17 12:29N 39°43' W 075°31'0 0.0
2018-Mar-17 11:59N 39°43' W 075°31'0 0.0
2018-Mar-17 11:29N 39°43' W 075°31'0 0.0
2018-Mar-17 10:59N 39°43' W 075°31'0 0.0
2018-Mar-17 10:29N 39°43' W 075°31'0 0.0
2018-Mar-17 09:59N 39°43' W 075°31'0 0.0
2018-Mar-17 09:29N 39°43' W 075°31'0 0.0
2018-Mar-17 08:59N 39°43' W 075°31'0 0.0
2018-Mar-17 08:29N 39°43' W 075°31'0 0.0
2018-Mar-17 07:59N 39°43' W 075°31'0 0.0
2018-Mar-17 07:29N 39°43' W 075°31'0 0.0
2018-Mar-17 06:59N 39°43' W 075°31'0 0.0
2018-Mar-17 06:29N 39°43' W 075°31'0 0.0
2018-Mar-17 05:59N 39°43' W 075°31'0 0.0
2018-Mar-17 05:29N 39°43' W 075°31'0 0.0
2018-Mar-17 04:59N 39°43' W 075°31'0 0.0
2018-Mar-17 04:29N 39°43' W 075°31'0 0.0
2018-Mar-17 03:59N 39°43' W 075°31'0 0.0
2018-Mar-17 03:26N 39°43' W 075°31'0 0.0
2018-Mar-17 02:59N 39°43' W 075°31'0 0.0
2018-Mar-17 02:29N 39°43' W 075°31'0 0.0
2018-Mar-17 01:59N 39°43' W 075°31'0 0.0
2018-Mar-17 01:29N 39°43' W 075°31'0 0.0
2018-Mar-17 00:59N 39°43' W 075°31'0 0.0
2018-Mar-17 00:29N 39°43' W 075°31'0 0.0
2018-Mar-16 23:59N 39°43' W 075°31'0 0.0
2018-Mar-16 23:29N 39°43' W 075°31'0 0.0
2018-Mar-16 22:59N 39°43' W 075°31'0 0.0
2018-Mar-16 22:29N 39°43' W 075°31'0 0.0
2018-Mar-16 21:59N 39°43' W 075°31'0 0.1
2018-Mar-16 21:30N 39°43' W 075°31'1 1.6
2018-Mar-16 21:01N 39°43' W 075°31'2 4.5
2018-Mar-16 20:31N 39°45' W 075°30'510.5
2018-Mar-16 20:01N 39°48' W 075°24'5 9.8
2018-Mar-16 19:30N 39°51' W 075°19'4 8.4
2018-Mar-16 19:01N 39°51' W 075°14'0 0.3
2018-Mar-16 18:29N 39°51' W 075°13'0 0.0
2018-Mar-16 17:59N 39°51' W 075°13'0 0.0
2018-Mar-16 17:29N 39°51' W 075°13'0 0.1
2018-Mar-16 16:59N 39°52' W 075°13'0 0.0
2018-Mar-16 16:29N 39°52' W 075°13'0 0.1
2018-Mar-16 15:59N 39°52' W 075°13'0 0.1
2018-Mar-16 15:29N 39°52' W 075°13'0 0.0
2018-Mar-16 14:59N 39°52' W 075°13'0 0.0
2018-Mar-16 14:29N 39°52' W 075°13'0 0.0
2018-Mar-16 13:59N 39°52' W 075°13'0 0.0
2018-Mar-16 13:29N 39°52' W 075°13'0 0.1
2018-Mar-16 12:59N 39°51' W 075°13'0 0.2
2018-Mar-16 12:29N 39°51' W 075°14'0 0.2
2018-Mar-16 11:59N 39°51' W 075°14'0 0.0
2018-Mar-16 11:29N 39°51' W 075°14'0 0.1
2018-Mar-16 11:00N 39°51' W 075°14'2 4.7
2018-Mar-16 10:30N 39°51' W 075°17'4 7.1
2018-Mar-16 10:00N 39°50' W 075°21'0 0.6
2018-Mar-16 09:30N 39°50' W 075°22'0 0.0
2018-Mar-16 09:00N 39°50' W 075°22'0 0.0
2018-Mar-16 08:27N 39°50' W 075°22'0 0.1
2018-Mar-16 08:00N 39°50' W 075°22'3 5.9
2018-Mar-16 07:30N 39°51' W 075°18'  

Dump ship's entire track history